Flight Track Log - Related Links

Times and Time Zones

All times are in EDT time to prevent confusion due to time zone crossing. See the AWE432 flight status page for this flight to view local times or setup timezone preferences in your user account.

Time Position Orientation Groundspeed Altitude Reporting Facility
EDT Latitude Longitude Course Direction KTS MPH feet Rate Location/Type
Thu 01:54:53 PM 33.4333 -111.9667 90° East 173 199 2,300  Level Phoenix TRACON
Thu 01:55:53 PM 33.4333 -111.9000 90° East 227 261 3,600 1,587 Climbing Phoenix TRACON
Thu 01:56:54 PM 33.4167 -111.8333 107° East 250 288 5,500 1,920 Climbing Phoenix TRACON
Thu 01:58:23 PM 33.3067 -111.8528 188° South 270 311 8,400 1,828 Climbing Albuquerque Center
Thu 01:59:25 PM 33.2967 -111.9400 262° West 284 327 10,100 1,161 Climbing Albuquerque Center
Thu 02:00:27 PM 33.3178 -112.0458 283° West 325 374 10,800 1,306 Climbing Albuquerque Center
Thu 02:01:29 PM 33.3369 -112.1633 281° West 354 407 12,800 1,742 Climbing Albuquerque Center
Thu 02:02:31 PM 33.3583 -112.2817 282° West 361 415 14,400 1,645 Climbing Albuquerque Center
Thu 02:03:33 PM 33.3797 -112.4042 282° West 372 428 16,200 1,762 Climbing Albuquerque Center
Thu 02:04:37 PM 33.4058 -112.5542 282° West 380 437 18,100 1,810 Climbing Albuquerque Center
Thu 02:05:39 PM 33.4272 -112.6797 282° West 386 444 20,000 1,790 Climbing Albuquerque Center
Thu 02:06:41 PM 33.4497 -112.8081 282° West 391 450 21,800 1,694 Climbing Albuquerque Center
Thu 02:07:43 PM 33.4744 -112.9386 283° West 399 459 23,500 1,645 Climbing Albuquerque Center
Thu 02:08:45 PM 33.5058 -113.0989 283° West 408 470 25,200 1,500 Climbing Albuquerque Center
Thu 02:09:47 PM 33.5322 -113.2358 283° West 417 480 26,600 1,344 Climbing Albuquerque Center
Thu 02:10:50 PM 33.5575 -113.3744 282° West 423 487 28,000 1,248 Climbing Albuquerque Center
Thu 02:11:52 PM 33.5842 -113.5150 283° West 429 494 29,200 1,403 Climbing Albuquerque Center
Thu 02:12:54 PM 33.6108 -113.6547 283° West 430 495 30,900 1,694 Climbing Albuquerque Center
Thu 02:13:56 PM 33.6378 -113.7956 283° West 421 484 32,700 1,452 Climbing Albuquerque Center
Thu 02:14:58 PM 33.6617 -113.9283 282° West 413 475 33,900 629 Climbing Albuquerque Center
Thu 02:16:00 PM 33.6861 -114.0603 283° West 409 471 34,000 51 Climbing Albuquerque Center
Thu 02:16:56 PM 33.7103 -114.1872 283° West 408 470 34,000  Level Los Angeles Center
Thu 02:17:58 PM 33.7381 -114.3447 282° West 405 466 34,000  Level Los Angeles Center
Thu 02:19:00 PM 33.7619 -114.4778 282° West 406 467 34,000  Level Los Angeles Center
Thu 02:20:03 PM 33.7797 -114.6117 279° West 407 468 34,000  Level Los Angeles Center
Thu 02:21:04 PM 33.7850 -114.7481 273° West 408 470 34,000  Level Los Angeles Center
Thu 02:22:06 PM 33.7925 -114.8847 274° West 411 473 34,000  Level Los Angeles Center
Thu 02:23:08 PM 33.8053 -115.0464 275° West 409 471 34,000  Level Los Angeles Center
Thu 02:24:11 PM 33.8386 -115.1778 287° West 412 474 34,000  Level Los Angeles Center
Thu 02:25:13 PM 33.8642 -115.3089 283° West 408 470 34,000  Level Los Angeles Center
Thu 02:26:15 PM 33.8883 -115.4408 282° West 407 468 34,000  Level Los Angeles Center
Thu 02:27:17 PM 33.9172 -115.5708 285° West 407 468 34,000  Level Los Angeles Center
Thu 02:28:19 PM 33.9514 -115.7281 285° West 407 468 34,000  Level Los Angeles Center
Thu 02:29:21 PM 33.9808 -115.8608 285° West 407 468 34,000  Level Los Angeles Center
Thu 02:30:24 PM 34.0086 -115.9928 284° West 407 468 34,000  Level Los Angeles Center
Thu 02:31:26 PM 34.0369 -116.1242 285° West 407 468 34,000  Level Los Angeles Center
Thu 02:32:28 PM 34.0642 -116.2558 284° West 407 468 34,000  Level Los Angeles Center
Thu 02:33:30 PM 34.0975 -116.4153 284° West 407 468 34,000 -48 Level Los Angeles Center
Thu 02:34:32 PM 34.1256 -116.5450 285° West 407 468 33,900  Descending Los Angeles Center
Thu 02:35:34 PM 34.1525 -116.6811 283° West 407 468 34,000 48 Climbing Los Angeles Center
Thu 02:36:37 PM 34.1800 -116.8139 284° West 407 468 34,000  Level Los Angeles Center
Thu 02:37:39 PM 34.2078 -116.9456 284° West 407 468 34,000  Level Los Angeles Center
Thu 02:38:41 PM 34.2339 -117.0786 283° West 407 468 34,000  Level Los Angeles Center
Thu 02:39:43 PM 34.2661 -117.2339 284° West 407 468 34,000  Level Los Angeles Center
Thu 02:40:45 PM 34.2919 -117.3644 284° West 406 467 34,000  Level Los Angeles Center
Thu 02:41:47 PM 34.3186 -117.4967 284° West 406 467 34,000  Level Los Angeles Center
Thu 02:42:50 PM 34.3453 -117.6297 284° West 406 467 34,000  Level Los Angeles Center
Thu 02:43:52 PM 34.3711 -117.7619 283° West 406 467 34,000  Level Los Angeles Center
Thu 02:44:54 PM 34.3989 -117.9058 283° West 407 468 34,000  Level Los Angeles Center
Thu 02:45:56 PM 34.4239 -118.0408 283° West 408 470 34,000  Level Los Angeles Center
Thu 02:46:58 PM 34.4333 -118.1922 274° West 410 472 34,000  Level Los Angeles Center
Thu 02:48:00 PM 34.4397 -118.3261 273° West 405 466 34,000  Level Los Angeles Center
Thu 02:49:03 PM 34.4469 -118.4619 274° West 405 466 34,000  Level Los Angeles Center
Thu 02:50:05 PM 34.4556 -118.6239 274° West 405 466 34,000  Level Los Angeles Center
Thu 02:51:07 PM 34.4614 -118.7603 273° West 406 467 34,000  Level Los Angeles Center
Thu 02:52:09 PM 34.4692 -118.8961 274° West 406 467 34,000  Level Los Angeles Center
Thu 02:53:11 PM 34.4756 -119.0328 273° West 407 468 34,000  Level Los Angeles Center
Thu 02:54:13 PM 34.4814 -119.1683 273° West 407 468 34,000  Level Los Angeles Center
Thu 02:55:15 PM 34.4889 -119.3319 273° West 407 468 34,000 288 Level Los Angeles Center
Thu 02:56:18 PM 34.4950 -119.4667 273° West 406 467 34,600 480 Climbing Los Angeles Center
Thu 02:57:20 PM 34.5017 -119.5992 274° West 398 458 35,000 194 Climbing Los Angeles Center
Thu 02:58:22 PM 34.5072 -119.7319 273° West 398 458 35,000  Level Los Angeles Center
Thu 02:59:24 PM 34.4800 -119.8589 255° West 398 458 35,000  Level Los Angeles Center
Thu 03:00:26 PM 34.4269 -120.0058 246° West 398 458 35,000  Level Los Angeles Center
Thu 03:01:28 PM 34.3897 -120.1147 248° West 398 458 35,000  Level Los Angeles Center
Thu 03:02:31 PM 34.3467 -120.2369 247° West 397 457 35,000  Level Los Angeles Center
Thu 03:03:33 PM 34.2969 -120.3758 247° West 404 465 35,000  Level Los Angeles Center
Thu 03:04:35 PM 34.2481 -120.5128 247° West 396 456 35,000  Level Los Angeles Center
Thu 03:05:37 PM 34.2042 -120.6367 247° West 397 457 35,000  Level Los Angeles Center
Thu 03:06:39 PM 34.1586 -120.7603 246° West 397 457 35,000  Level Los Angeles Center
Thu 03:07:41 PM 34.1147 -120.8828 247° West 398 458 35,000  Level Los Angeles Center
Thu 03:08:44 PM 34.0697 -121.0058 246° West 398 458 35,000  Level Los Angeles Center
Thu 03:09:46 PM 34.0250 -121.1289 246° West 400 460 35,000  Level Los Angeles Center
Thu 03:10:48 PM 33.9708 -121.2761 246° West 399 459 35,000  Level Los Angeles Center
Thu 03:12:52 PM 33.8808 -121.5197 246° West 398 458 35,000  Level Los Angeles Center
Thu 03:13:54 PM 33.8372 -121.6414 247° West 398 458 35,000  Level Los Angeles Center
Thu 03:14:57 PM 33.7914 -121.7647 246° West 401 461 35,000  Level Los Angeles Center
Thu 03:15:59 PM 33.7458 -121.8864 246° West 401 461 35,000  Level Los Angeles Center
Thu 03:17:01 PM 33.6911 -122.0325 246° West 402 463 35,000  Level Los Angeles Center
Thu 03:18:03 PM 33.6450 -122.1550 246° West 401 461 35,000  Level Los Angeles Center
Thu 03:19:05 PM 33.5972 -122.2747 244° Southwest 399 459 35,000  Level Los Angeles Center
Thu 03:20:08 PM 33.5522 -122.3981 246° West 401 461 35,000  Level Los Angeles Center
Thu 03:21:10 PM 33.5069 -122.5189 246° West 401 461 35,000  Level Los Angeles Center
Thu 03:38:14 PM 33.0667 -124.5167 255° West 392 451 35,000  Level Oakland Oceanic (ODAPS)
Thu 03:39:00 PM 32.9997 -124.8154 255° West  Level FlightAware Approximate
Thu 03:40:00 PM 32.9706 -124.9440 255° West  Level FlightAware Approximate
Thu 03:41:00 PM 32.9413 -125.0725 255° West  Level FlightAware Approximate
Thu 03:42:00 PM 32.9119 -125.2011 255° West  Level FlightAware Approximate
Thu 03:43:00 PM 32.8824 -125.3296 255° West  Level FlightAware Approximate
Thu 03:44:00 PM 32.8527 -125.4580 255° West  Level FlightAware Approximate
Thu 03:45:00 PM 32.8099 -125.6424 254° West 392 451 35,000  Level FlightAware Transoceanic
Thu 03:46:00 PM 32.7807 -125.7671 254° West 392 451 35,000  Level FlightAware Transoceanic
Thu 03:47:00 PM 32.7514 -125.8917 254° West 392 451 35,000  Level FlightAware Transoceanic
Thu 03:48:00 PM 32.7220 -126.0162 254° West 392 451 35,000  Level FlightAware Transoceanic
Thu 03:49:00 PM 32.6925 -126.1406 254° West 392 451 35,000  Level FlightAware Transoceanic
Thu 03:50:00 PM 32.6629 -126.2649 254° West 392 451 35,000  Level FlightAware Transoceanic
Thu 03:51:00 PM 32.6331 -126.3892 254° West 392 451 35,000  Level FlightAware Transoceanic
Thu 03:52:00 PM 32.6032 -126.5134 254° West 392 451 35,000  Level FlightAware Transoceanic
Thu 03:53:00 PM 32.5732 -126.6375 254° West 392 451 35,000  Level FlightAware Transoceanic
Thu 03:54:00 PM 32.5431 -126.7615 254° West 392 451 35,000  Level FlightAware Transoceanic
Thu 03:55:00 PM 32.5128 -126.8854 254° West 392 451 35,000  Level FlightAware Transoceanic
Thu 03:56:00 PM 32.4824 -127.0093 254° West 392 451 35,000  Level FlightAware Transoceanic
Thu 03:57:00 PM 32.4520 -127.1330 254° West 392 451 35,000  Level FlightAware Transoceanic
Thu 03:58:00 PM 32.4213 -127.2567 254° West 392 451 35,000  Level FlightAware Transoceanic
Thu 03:59:00 PM 32.3906 -127.3803 254° West 392 451 35,000  Level FlightAware Transoceanic
Thu 04:00:00 PM 32.3597 -127.5038 253° West 392 451 35,000  Level FlightAware Transoceanic
Thu 04:01:00 PM 32.3288 -127.6273 253° West 392 451 35,000  Level FlightAware Transoceanic
Thu 04:02:00 PM 32.2976 -127.7506 253° West 392 451 35,000  Level FlightAware Transoceanic
Thu 04:03:00 PM 32.2664 -127.8739 253° West 392 451 35,000  Level FlightAware Transoceanic
Thu 04:04:00 PM 32.2351 -127.9970 253° West 392 451 35,000  Level FlightAware Transoceanic
Thu 04:05:00 PM 32.2036 -128.1201 253° West 392 451 35,000  Level FlightAware Transoceanic
Thu 04:06:00 PM 32.1721 -128.2431 253° West 392 451 35,000  Level FlightAware Transoceanic
Thu 04:07:00 PM 32.1404 -128.3660 253° West 392 451 35,000  Level FlightAware Transoceanic
Thu 04:08:00 PM 32.1085 -128.4889 253° West 392 451 35,000  Level FlightAware Transoceanic
Thu 04:09:00 PM 32.0766 -128.6116 253° West 392 451 35,000  Level FlightAware Transoceanic
Thu 04:10:00 PM 32.0446 -128.7343 253° West 392 451 35,000  Level FlightAware Transoceanic
Thu 04:11:00 PM 32.0124 -128.8569 253° West 392 451 35,000  Level FlightAware Transoceanic
Thu 04:12:00 PM 31.9801 -128.9793 253° West 392 451 35,000  Level FlightAware Transoceanic
Thu 04:13:00 PM 31.9477 -129.1017 253° West 392 451 35,000  Level FlightAware Transoceanic
Thu 04:14:00 PM 31.9152 -129.2240 253° West 392 451 35,000  Level FlightAware Transoceanic
Thu 04:15:00 PM 31.8825 -129.3463 253° West 392 451 35,000  Level FlightAware Transoceanic
Thu 04:16:00 PM 31.8498 -129.4684 252° West 392 451 35,000  Level FlightAware Transoceanic
Thu 04:17:00 PM 31.8169 -129.5905 252° West 392 451 35,000  Level FlightAware Transoceanic
Thu 04:18:00 PM 31.7839 -129.7124 252° West 392 451 35,000  Level FlightAware Transoceanic
Thu 04:19:00 PM 31.7508 -129.8343 252° West 392 451 35,000  Level FlightAware Transoceanic
Thu 04:20:00 PM 31.7176 -129.9561 252° West 392 451 35,000  Level FlightAware Transoceanic
Thu 04:21:00 PM 31.6842 -130.0778 252° West 392 451 35,000  Level FlightAware Transoceanic
Thu 04:22:00 PM 31.6508 -130.1994 252° West 392 451 35,000  Level FlightAware Transoceanic
Thu 04:23:00 PM 31.6172 -130.3210 252° West 392 451 35,000  Level FlightAware Transoceanic
Thu 04:24:00 PM 31.5835 -130.4424 252° West 392 451 35,000  Level FlightAware Transoceanic
Thu 04:25:00 PM 31.5497 -130.5638 252° West 392 451 35,000  Level FlightAware Transoceanic
Thu 04:26:00 PM 31.5158 -130.6850 252° West 392 451 35,000  Level FlightAware Transoceanic
Thu 04:27:00 PM 31.4818 -130.8062 252° West 392 451 35,000  Level FlightAware Transoceanic
Thu 04:28:00 PM 31.4476 -130.9273 252° West 392 451 35,000  Level FlightAware Transoceanic
Thu 04:29:00 PM 31.4134 -131.0483 252° West 392 451 35,000  Level FlightAware Transoceanic
Thu 04:30:00 PM 31.3790 -131.1692 252° West 392 451 35,000  Level FlightAware Transoceanic
Thu 04:31:00 PM 31.3445 -131.2901 251° West 392 451 35,000  Level FlightAware Transoceanic
Thu 04:32:00 PM 31.3099 -131.4108 251° West 392 451 35,000  Level FlightAware Transoceanic
Thu 04:33:00 PM 31.2752 -131.5314 251° West 392 451 35,000  Level FlightAware Transoceanic
Thu 04:34:00 PM 31.2404 -131.6520 251° West 392 451 35,000  Level FlightAware Transoceanic
Thu 04:35:00 PM 31.2055 -131.7725 251° West 392 451 35,000  Level FlightAware Transoceanic
Thu 04:36:00 PM 31.1704 -131.8928 251° West 392 451 35,000  Level FlightAware Transoceanic
Thu 04:37:00 PM 31.1353 -132.0131 251° West 392 451 35,000  Level FlightAware Transoceanic
Thu 04:38:00 PM 31.1000 -132.1333 251° West 392 451 35,000  Level FlightAware Transoceanic
Thu 04:39:00 PM 31.0621 -132.2622 251° West 392 451 35,000  Level FlightAware Transoceanic
Thu 04:40:00 PM 31.0241 -132.3909 251° West 392 451 35,000  Level FlightAware Transoceanic
Thu 04:41:00 PM 30.9859 -132.5195 251° West 392 451 35,000  Level FlightAware Transoceanic
Thu 04:42:00 PM 30.9477 -132.6480 251° West 392 451 35,000  Level FlightAware Transoceanic
Thu 04:42:04 PM 31.1000 -132.1333 251° West 399 459 35,000  Level Oakland Oceanic (ODAPS)
Thu 04:43:00 PM 30.9093 -132.7765 251° West 392 451 35,000  Level FlightAware Transoceanic
Thu 04:44:00 PM 30.8707 -132.9048 251° West 392 451 35,000  Level FlightAware Transoceanic
Thu 04:45:00 PM 30.8321 -133.0330 251° West 392 451 35,000  Level FlightAware Transoceanic
Thu 04:46:00 PM 30.7933 -133.1611 251° West 392 451 35,000  Level FlightAware Transoceanic
Thu 04:47:00 PM 30.7544 -133.2891 250° West 392 451 35,000  Level FlightAware Transoceanic
Thu 04:48:00 PM 30.7716 -133.2325 251° West 399 459 35,000  Level FlightAware Transoceanic
Thu 04:49:00 PM 30.7346 -133.3541 250° West 399 459 35,000  Level FlightAware Transoceanic
Thu 04:50:00 PM 30.6974 -133.4757 250° West 399 459 35,000  Level FlightAware Transoceanic
Thu 04:51:00 PM 30.6601 -133.5972 250° West 399 459 35,000  Level FlightAware Transoceanic
Thu 04:52:00 PM 30.6227 -133.7185 250° West 399 459 35,000  Level FlightAware Transoceanic
Thu 04:53:00 PM 30.5852 -133.8398 250° West 399 459 35,000  Level FlightAware Transoceanic
Thu 04:54:00 PM 30.5476 -133.9610 250° West 399 459 35,000  Level FlightAware Transoceanic
Thu 04:55:00 PM 30.5099 -134.0821 250° West 399 459 35,000  Level FlightAware Transoceanic
Thu 04:56:00 PM 30.4720 -134.2031 250° West 399 459 35,000  Level FlightAware Transoceanic
Thu 04:57:00 PM 30.4341 -134.3240 250° West 399 459 35,000  Level FlightAware Transoceanic
Thu 04:58:00 PM 30.3960 -134.4448 250° West 399 459 35,000  Level FlightAware Transoceanic
Thu 04:59:00 PM 30.3578 -134.5655 250° West 399 459 35,000  Level FlightAware Transoceanic
Thu 05:00:00 PM 30.3195 -134.6862 250° West 399 459 35,000  Level FlightAware Transoceanic
Thu 05:01:00 PM 30.2811 -134.8067 250° West 399 459 35,000  Level FlightAware Transoceanic
Thu 05:02:00 PM 30.2426 -134.9271 250° West 399 459 35,000  Level FlightAware Transoceanic
Thu 05:03:00 PM 30.2040 -135.0475 250° West 399 459 35,000  Level FlightAware Transoceanic
Thu 05:04:00 PM 30.1653 -135.1677 250° West 399 459 35,000  Level FlightAware Transoceanic
Thu 05:05:00 PM 30.1264 -135.2879 249° West 399 459 35,000  Level FlightAware Transoceanic
Thu 05:06:00 PM 30.0875 -135.4079 249° West 399 459 35,000  Level FlightAware Transoceanic
Thu 05:07:00 PM 30.0484 -135.5279 249° West 399 459 35,000  Level FlightAware Transoceanic
Thu 05:08:00 PM 30.0093 -135.6477 249° West 399 459 35,000  Level FlightAware Transoceanic
Thu 05:09:00 PM 29.9700 -135.7675 249° West 399 459 35,000  Level FlightAware Transoceanic
Thu 05:10:00 PM 29.9306 -135.8872 249° West 399 459 35,000  Level FlightAware Transoceanic
Thu 05:11:00 PM 29.8911 -136.0068 249° West 399 459 35,000  Level FlightAware Transoceanic
Thu 05:12:00 PM 29.8515 -136.1263 249° West 399 459 35,000  Level FlightAware Transoceanic
Thu 05:13:00 PM 29.8118 -136.2457 249° West 399 459 35,000  Level FlightAware Transoceanic
Thu 05:14:00 PM 29.7720 -136.3649 249° West 399 459 35,000  Level FlightAware Transoceanic
Thu 05:15:00 PM 29.7320 -136.4841 249° West 399 459 35,000  Level FlightAware Transoceanic
Thu 05:16:00 PM 29.6920 -136.6033 249° West 399 459 35,000  Level FlightAware Transoceanic
Thu 05:17:00 PM 29.6519 -136.7223 249° West 399 459 35,000  Level FlightAware Transoceanic
Thu 05:18:00 PM 29.6117 -136.8412 249° West 399 459 35,000  Level FlightAware Transoceanic
Thu 05:19:00 PM 29.5713 -136.9600 249° West 399 459 35,000  Level FlightAware Transoceanic
Thu 05:20:00 PM 29.5308 -137.0787 249° West 399 459 35,000  Level FlightAware Transoceanic
Thu 05:21:00 PM 29.4903 -137.1974 249° West 399 459 35,000  Level FlightAware Transoceanic
Thu 05:22:00 PM 29.4496 -137.3159 248° West 399 459 35,000  Level FlightAware Transoceanic
Thu 05:23:00 PM 29.4089 -137.4344 248° West 399 459 35,000  Level FlightAware Transoceanic
Thu 05:24:00 PM 29.3680 -137.5527 248° West 399 459 35,000  Level FlightAware Transoceanic
Thu 05:25:00 PM 29.3270 -137.6709 248° West 399 459 35,000  Level FlightAware Transoceanic
Thu 05:26:00 PM 29.2859 -137.7891 248° West 399 459 35,000  Level FlightAware Transoceanic
Thu 05:27:00 PM 29.2447 -137.9072 248° West 399 459 35,000  Level FlightAware Transoceanic
Thu 05:28:00 PM 29.2034 -138.0251 248° West 399 459 35,000  Level FlightAware Transoceanic
Thu 05:29:00 PM 29.1621 -138.1430 248° West 399 459 35,000  Level FlightAware Transoceanic
Thu 05:30:00 PM 29.1206 -138.2608 248° West 399 459 35,000  Level FlightAware Transoceanic
Thu 05:31:00 PM 29.0790 -138.3785 248° West 399 459 35,000  Level FlightAware Transoceanic
Thu 05:32:00 PM 29.0373 -138.4961 248° West 399 459 35,000  Level FlightAware Transoceanic
Thu 05:33:00 PM 28.9955 -138.6136 248° West 399 459 35,000  Level FlightAware Transoceanic
Thu 05:34:00 PM 28.9536 -138.7310 248° West 399 459 35,000  Level FlightAware Transoceanic
Thu 05:35:00 PM 28.9116 -138.8483 248° West 399 459 35,000  Level FlightAware Transoceanic
Thu 05:36:00 PM 28.8694 -138.9655 248° West 399 459 35,000  Level FlightAware Transoceanic
Thu 05:37:00 PM 28.8272 -139.0826 248° West 399 459 35,000  Level FlightAware Transoceanic
Thu 05:38:00 PM 28.7849 -139.1996 248° West 399 459 35,000  Level FlightAware Transoceanic
Thu 05:39:00 PM 28.7425 -139.3165 247° West 399 459 35,000  Level FlightAware Transoceanic
Thu 05:40:00 PM 28.7000 -139.4333 247° West 399 459 35,000  Level FlightAware Transoceanic
Thu 05:41:00 PM 28.6521 -139.5634 247° West 399 459 35,000  Level FlightAware Transoceanic
Thu 05:42:00 PM 28.6041 -139.6934 247° West 399 459 35,000  Level FlightAware Transoceanic
Thu 05:43:00 PM 28.5560 -139.8233 247° West 399 459 35,000  Level FlightAware Transoceanic
Thu 05:43:31 PM 28.7000 -139.4333 247° West 438 504 35,000  Level Oakland Oceanic (ODAPS)
Thu 06:39:04 PM 26.0000 -146.1667 244° Southwest 436 502 35,000  Level Oakland Oceanic (ODAPS)
Thu 07:26:32 PM 22.9667 -152.7000 242° Southwest 410 472 35,000  Level Honolulu Center
Thu 07:27:00 PM 22.9629 -152.6921 242° Southwest 436 502 35,000  Level FlightAware Transoceanic
Thu 07:27:43 PM 22.9000 -152.8333 242° Southwest 410 472 35,000  Level Honolulu Center
Thu 07:28:00 PM 22.9091 -152.8009 242° Southwest 436 502 35,000  Level FlightAware Transoceanic
Thu 07:28:43 PM 22.8500 -152.9167 237° Southwest 410 472 35,000  Level Honolulu Center
Thu 07:29:00 PM 22.8552 -152.9095 242° Southwest 436 502 35,000  Level FlightAware Transoceanic
Thu 07:29:43 PM 22.7833 -153.0333 238° Southwest 410 472 35,000  Level Honolulu Center
Thu 07:30:00 PM 22.8012 -153.0180 242° Southwest 436 502 35,000  Level FlightAware Transoceanic
Thu 07:30:44 PM 22.7333 -153.1500 245° Southwest 400 460 35,000  Level Honolulu Center
Thu 07:31:00 PM 22.7471 -153.1265 242° Southwest 436 502 35,000  Level FlightAware Transoceanic
Thu 07:31:44 PM 22.6667 -153.2500 234° Southwest 410 472 35,000  Level Honolulu Center
Thu 07:32:45 PM 22.6167 -153.3500 242° Southwest 400 460 35,000  Level Honolulu Center
Thu 07:33:45 PM 22.5500 -153.4500 234° Southwest 390 449 35,000  Level Honolulu Center
Thu 07:34:45 PM 22.5000 -153.5500 242° Southwest 390 449 35,000  Level Honolulu Center
Thu 07:35:46 PM 22.4333 -153.6500 234° Southwest 390 449 35,000  Level Honolulu Center
Thu 07:36:46 PM 22.3833 -153.7500 242° Southwest 390 449 35,000  Level Honolulu Center
Thu 07:37:46 PM 22.3333 -153.8500 242° Southwest 380 437 35,000  Level Honolulu Center
Thu 07:38:47 PM 22.2833 -153.9500 242° Southwest 390 449 35,000  Level Honolulu Center
Thu 07:39:47 PM 22.2167 -154.0500 234° Southwest 370 426 35,000  Level Honolulu Center
Thu 07:40:48 PM 22.1667 -154.1500 242° Southwest 380 437 35,000  Level Honolulu Center
Thu 07:41:48 PM 22.1167 -154.2500 242° Southwest 390 449 35,000  Level Honolulu Center
Thu 07:42:48 PM 22.0667 -154.3500 242° Southwest 390 449 35,000  Level Honolulu Center
Thu 07:43:49 PM 22.0000 -154.4500 234° Southwest 390 449 35,000  Level Honolulu Center
Thu 07:44:49 PM 21.9500 -154.5500 242° Southwest 390 449 35,000  Level Honolulu Center
Thu 07:45:49 PM 21.9000 -154.6500 242° Southwest 390 449 35,000  Level Honolulu Center
Thu 07:46:49 PM 21.8500 -154.7333 237° Southwest 390 449 35,000  Level Honolulu Center
Thu 07:47:50 PM 21.7667 -154.8333 228° Southwest 380 437 35,000  Level Honolulu Center
Thu 07:48:50 PM 21.6833 -154.9000 217° Southwest 400 460 35,000  Level Honolulu Center
Thu 07:49:50 PM 21.5833 -154.9833 218° Southwest 400 460 35,000 -50 Level Honolulu Center
Thu 07:50:51 PM 21.5000 -155.0500 217° Southwest 400 460 34,900 -1,388 Descending Honolulu Center
Thu 07:51:51 PM 21.4167 -155.1167 217° Southwest 400 460 32,200 -3,074 Descending Honolulu Center
Thu 07:52:52 PM 21.3667 -155.2333 245° Southwest 410 472 28,700 -2,975 Descending Honolulu Center
Thu 07:53:52 PM 21.3667 -155.3667 270° West 420 483 26,200 -2,500 Descending Honolulu Center
Thu 07:54:52 PM 21.3500 -155.4833 261° West 440 506 23,700 -2,628 Descending Honolulu Center
Thu 07:55:53 PM 21.3500 -155.6167 270° West 440 506 20,900 -2,678 Descending Honolulu Center
Thu 07:56:53 PM 21.2833 -155.7500 242° Southwest 430 495 18,300 -2,800 Descending Honolulu Center
Thu 07:57:53 PM 21.2167 -155.8667 239° Southwest 430 495 15,300 -3,025 Descending Honolulu Center
Thu 07:58:54 PM 21.1667 -155.9667 242° Southwest 400 460 12,200 -2,529 Descending Honolulu Center
Thu 07:59:54 PM 21.1000 -156.0667 234° Southwest 370 426 10,200 -1,140 Descending Honolulu Center
Thu 08:00:55 PM 21.0500 -156.1500 237° Southwest 320 368 9,900 -793 Descending Honolulu Center
Thu 08:01:55 PM 21.0167 -156.2167 242° Southwest 290 334 8,600 -1,450 Descending Honolulu Center
Thu 08:02:55 PM 20.9667 -156.2833 231° Southwest 300 345 7,000 -1,587 Descending Honolulu Center
Thu 08:03:56 PM 20.9000 -156.3500 223° Southwest 280 322 5,400 -1,240 Descending Honolulu Center
Thu 08:04:56 PM 20.8500 -156.4000 223° Southwest 250 288 4,500 -843 Descending Honolulu Center
Thu 08:05:57 PM 20.7833 -156.4333 205° Southwest 230 265 3,700 -744 Descending Honolulu Center
Thu 08:06:57 PM 20.7333 -156.4667 212° Southwest 210 242 3,000 -600 Descending Honolulu Center
Thu 08:07:57 PM 20.7500 -156.5000 298° West 190 219 2,500 -298 Descending Honolulu Center
Thu 08:08:58 PM 20.7833 -156.5000 360° North 160 184 2,400 -446 Descending Honolulu Center
Thu 08:09:58 PM 20.8167 -156.4667 43° Northeast 140 161 1,600 -750 Descending Honolulu Center
Thu 08:10:58 PM 20.8500 -156.4500 25° Northeast 110 127 900 -700 Descending Honolulu Center

Login

Don't have an account? Register now (free) for customized features, flight alerts, and more!